SHT13W EGNT-EGLL
Flight info
| Callsign | SHT13W |
|---|---|
| Flight time | 0h 50m |
| Altitude | 27000 |
| Route | GIRLI P18 GASKO P16 RIBEL UP16 CROFT DCT NUGRA |
| Aircraft | A20N/M-SDE2E3FGHIRWXY/LB1 |
Departure
| Time | 2026-05-07 20:26 |
|---|---|
| Airport | Newcastle International Airport (EGNT) |
Arrival
| Time | 2026-05-07 21:17 |
|---|---|
| Airport | London Heathrow Airport (EGLL) |
| Time | Latitude | Longitude | Altitude | Speed | Heading |
|---|---|---|---|---|---|
| 2026-05-07 20:21 | 55.03672 | -1.70845 | 273 ft | 2 kts | 4° |
| 2026-05-07 20:21 | 55.03656 | -1.70847 | 276 ft | 2 kts | 2° |
| 2026-05-07 20:21 | 55.03639 | -1.70848 | 274 ft | 2 kts | 0° |
| 2026-05-07 20:22 | 55.03623 | -1.70847 | 280 ft | 2 kts | 355° |
| 2026-05-07 20:22 | 55.03606 | -1.70844 | 278 ft | 2 kts | 356° |
| 2026-05-07 20:22 | 55.03590 | -1.70845 | 280 ft | 2 kts | 3° |
| 2026-05-07 20:22 | 55.03576 | -1.70846 | 274 ft | 1 kts | 4° |
| 2026-05-07 20:23 | 55.03575 | -1.70846 | 274 ft | 0 kts | 4° |
| 2026-05-07 20:24 | 55.03581 | -1.70842 | 274 ft | 1 kts | 29° |
| 2026-05-07 20:24 | 55.03592 | -1.70804 | 277 ft | 9 kts | 73° |
| 2026-05-07 20:25 | 55.03577 | -1.70673 | 276 ft | 13 kts | 141° |
| 2026-05-07 20:25 | 55.03482 | -1.70649 | 274 ft | 15 kts | 179° |
| 2026-05-07 20:25 | 55.03379 | -1.70616 | 274 ft | 16 kts | 126° |
| 2026-05-07 20:25 | 55.03413 | -1.70412 | 272 ft | 37 kts | 64° |
| 2026-05-07 20:26 | 55.03617 | -1.69640 | 271 ft | 102 kts | 65° |
| 2026-05-07 20:26 | 55.03996 | -1.68219 | 257 ft | 153 kts | 65° |
| 2026-05-07 20:26 | 55.04472 | -1.66433 | 640 ft | 163 kts | 67° |
| 2026-05-07 20:26 | 55.04977 | -1.64643 | 1209 ft | 168 kts | 68° |
| 2026-05-07 20:27 | 55.05499 | -1.62788 | 1809 ft | 170 kts | 70° |
| 2026-05-07 20:27 | 55.06012 | -1.60884 | 2360 ft | 175 kts | 71° |
| 2026-05-07 20:27 | 55.06483 | -1.58956 | 2899 ft | 174 kts | 81° |
| 2026-05-07 20:27 | 55.06539 | -1.56893 | 3415 ft | 169 kts | 109° |
| 2026-05-07 20:28 | 55.06068 | -1.55052 | 3924 ft | 170 kts | 134° |
| 2026-05-07 20:28 | 55.05136 | -1.53679 | 4344 ft | 183 kts | 159° |
| 2026-05-07 20:28 | 55.03858 | -1.53172 | 4816 ft | 197 kts | 183° |
| 2026-05-07 20:28 | 55.02422 | -1.53223 | 5228 ft | 221 kts | 183° |
| 2026-05-07 20:29 | 55.00798 | -1.53265 | 5738 ft | 244 kts | 183° |
| 2026-05-07 20:29 | 54.99048 | -1.53292 | 6479 ft | 256 kts | 185° |
| 2026-05-07 20:29 | 54.97287 | -1.53804 | 7351 ft | 258 kts | 199° |
| 2026-05-07 20:29 | 54.95642 | -1.55113 | 7806 ft | 261 kts | 212° |
| 2026-05-07 20:30 | 54.94088 | -1.56744 | 7966 ft | 261 kts | 212° |
| 2026-05-07 20:30 | 54.92544 | -1.58369 | 8004 ft | 262 kts | 212° |
| 2026-05-07 20:30 | 54.90980 | -1.60000 | 8000 ft | 261 kts | 212° |
| 2026-05-07 20:30 | 54.89416 | -1.61618 | 8002 ft | 261 kts | 211° |
| 2026-05-07 20:31 | 54.87852 | -1.63228 | 7998 ft | 260 kts | 211° |
| 2026-05-07 20:31 | 54.86304 | -1.64816 | 8000 ft | 262 kts | 211° |
| 2026-05-07 20:31 | 54.84729 | -1.66431 | 7996 ft | 261 kts | 211° |
| 2026-05-07 20:31 | 54.83153 | -1.68044 | 8103 ft | 264 kts | 211° |
| 2026-05-07 20:32 | 54.81565 | -1.69669 | 8742 ft | 266 kts | 211° |
| 2026-05-07 20:32 | 54.79970 | -1.71299 | 9803 ft | 266 kts | 212° |
| 2026-05-07 20:32 | 54.78367 | -1.72937 | 10500 ft | 278 kts | 211° |
| 2026-05-07 20:32 | 54.76630 | -1.74714 | 10806 ft | 302 kts | 211° |
| 2026-05-07 20:33 | 54.74759 | -1.76626 | 11251 ft | 317 kts | 211° |
| 2026-05-07 20:33 | 54.72855 | -1.78535 | 12039 ft | 322 kts | 208° |
| 2026-05-07 20:33 | 54.70799 | -1.80110 | 12871 ft | 326 kts | 200° |
| 2026-05-07 20:33 | 54.68601 | -1.81178 | 13687 ft | 330 kts | 192° |
| 2026-05-07 20:34 | 54.66319 | -1.81883 | 14392 ft | 335 kts | 190° |
| 2026-05-07 20:34 | 54.64012 | -1.82592 | 15116 ft | 338 kts | 191° |
| 2026-05-07 20:34 | 54.61684 | -1.83318 | 15838 ft | 342 kts | 191° |
| 2026-05-07 20:34 | 54.59323 | -1.84061 | 16549 ft | 346 kts | 191° |
| 2026-05-07 20:35 | 54.56974 | -1.84802 | 17244 ft | 349 kts | 191° |
| 2026-05-07 20:35 | 54.54565 | -1.85563 | 17929 ft | 353 kts | 191° |
| 2026-05-07 20:35 | 54.52130 | -1.86330 | 18570 ft | 357 kts | 191° |
| 2026-05-07 20:35 | 54.49675 | -1.87103 | 19165 ft | 361 kts | 191° |
| 2026-05-07 20:36 | 54.47192 | -1.87883 | 19740 ft | 364 kts | 191° |
| 2026-05-07 20:36 | 54.44678 | -1.88659 | 20314 ft | 368 kts | 191° |
| 2026-05-07 20:36 | 54.42161 | -1.89424 | 20886 ft | 372 kts | 191° |
| 2026-05-07 20:36 | 54.39625 | -1.90191 | 21475 ft | 376 kts | 191° |
| 2026-05-07 20:37 | 54.37037 | -1.90974 | 22036 ft | 379 kts | 191° |
| 2026-05-07 20:37 | 54.34420 | -1.91766 | 22603 ft | 383 kts | 191° |
| 2026-05-07 20:37 | 54.31786 | -1.92563 | 23150 ft | 387 kts | 191° |
| 2026-05-07 20:37 | 54.29112 | -1.93371 | 23692 ft | 391 kts | 191° |
| 2026-05-07 20:38 | 54.26418 | -1.94184 | 24177 ft | 393 kts | 191° |
| 2026-05-07 20:38 | 54.23710 | -1.95002 | 24674 ft | 396 kts | 191° |
| 2026-05-07 20:38 | 54.20987 | -1.95822 | 25149 ft | 398 kts | 191° |
| 2026-05-07 20:38 | 54.18251 | -1.96646 | 25608 ft | 401 kts | 191° |
| 2026-05-07 20:39 | 54.15531 | -1.97463 | 26053 ft | 403 kts | 191° |
| 2026-05-07 20:39 | 54.12752 | -1.98297 | 26500 ft | 406 kts | 191° |
| 2026-05-07 20:39 | 54.09953 | -1.99136 | 26873 ft | 409 kts | 191° |
| 2026-05-07 20:39 | 54.07135 | -1.99980 | 27004 ft | 410 kts | 191° |
| 2026-05-07 20:40 | 54.04310 | -2.00823 | 27018 ft | 410 kts | 191° |
| 2026-05-07 20:40 | 54.01530 | -2.01653 | 27022 ft | 411 kts | 191° |
| 2026-05-07 20:40 | 53.98712 | -2.02492 | 27021 ft | 411 kts | 191° |
| 2026-05-07 20:40 | 53.95885 | -2.03334 | 27018 ft | 411 kts | 191° |
| 2026-05-07 20:41 | 53.93068 | -2.04172 | 27020 ft | 411 kts | 191° |
| 2026-05-07 20:41 | 53.90239 | -2.05012 | 27021 ft | 411 kts | 191° |
| 2026-05-07 20:41 | 53.87448 | -2.05840 | 27021 ft | 412 kts | 191° |
| 2026-05-07 20:41 | 53.84592 | -2.06685 | 27021 ft | 412 kts | 191° |
| 2026-05-07 20:42 | 53.81798 | -2.07511 | 27022 ft | 412 kts | 191° |
| 2026-05-07 20:42 | 53.78975 | -2.08345 | 27019 ft | 412 kts | 191° |
| 2026-05-07 20:42 | 53.76145 | -2.09179 | 27020 ft | 412 kts | 191° |
| 2026-05-07 20:42 | 53.73308 | -2.10014 | 27020 ft | 412 kts | 191° |
| 2026-05-07 20:43 | 53.70484 | -2.10844 | 27019 ft | 412 kts | 191° |
| 2026-05-07 20:43 | 53.67653 | -2.11676 | 27023 ft | 413 kts | 191° |
| 2026-05-07 20:43 | 53.64816 | -2.12507 | 27026 ft | 413 kts | 191° |
| 2026-05-07 20:43 | 53.61987 | -2.13335 | 27030 ft | 413 kts | 191° |
| 2026-05-07 20:44 | 53.59149 | -2.14165 | 27034 ft | 413 kts | 191° |
| 2026-05-07 20:44 | 53.56355 | -2.14981 | 27034 ft | 413 kts | 191° |
| 2026-05-07 20:44 | 53.53521 | -2.15808 | 27037 ft | 413 kts | 192° |
| 2026-05-07 20:44 | 53.50685 | -2.16634 | 27040 ft | 413 kts | 192° |
| 2026-05-07 20:45 | 53.47844 | -2.17460 | 27043 ft | 414 kts | 192° |
| 2026-05-07 20:45 | 53.45000 | -2.18286 | 27045 ft | 414 kts | 192° |
| 2026-05-07 20:45 | 53.42154 | -2.19112 | 27048 ft | 414 kts | 192° |
| 2026-05-07 20:45 | 53.39307 | -2.19937 | 27047 ft | 414 kts | 192° |
| 2026-05-07 20:46 | 53.36472 | -2.20757 | 27049 ft | 414 kts | 192° |
| 2026-05-07 20:46 | 53.33665 | -2.21568 | 27048 ft | 414 kts | 192° |
| 2026-05-07 20:46 | 53.30828 | -2.22387 | 27048 ft | 414 kts | 192° |
| 2026-05-07 20:46 | 53.27983 | -2.23207 | 27049 ft | 414 kts | 192° |
| 2026-05-07 20:47 | 53.25138 | -2.24025 | 27046 ft | 414 kts | 192° |
| 2026-05-07 20:47 | 53.22293 | -2.24843 | 27043 ft | 414 kts | 192° |
| 2026-05-07 20:47 | 53.19458 | -2.25656 | 27042 ft | 414 kts | 192° |
| 2026-05-07 20:47 | 53.16617 | -2.26471 | 27040 ft | 413 kts | 192° |
| 2026-05-07 20:48 | 53.13782 | -2.27282 | 27037 ft | 414 kts | 192° |
| 2026-05-07 20:48 | 53.10973 | -2.28085 | 27033 ft | 414 kts | 192° |
| 2026-05-07 20:48 | 53.08140 | -2.28894 | 27035 ft | 414 kts | 192° |
| 2026-05-07 20:48 | 53.05268 | -2.29378 | 27032 ft | 416 kts | 181° |
| 2026-05-07 20:49 | 53.02384 | -2.28737 | 27027 ft | 421 kts | 167° |
| 2026-05-07 20:49 | 52.99655 | -2.26921 | 27027 ft | 425 kts | 153° |
| 2026-05-07 20:49 | 52.97139 | -2.24321 | 27030 ft | 427 kts | 150° |
| 2026-05-07 20:49 | 52.94634 | -2.21668 | 27028 ft | 426 kts | 150° |
| 2026-05-07 20:50 | 52.92132 | -2.19024 | 27031 ft | 426 kts | 150° |
| 2026-05-07 20:50 | 52.89650 | -2.16414 | 27030 ft | 426 kts | 150° |
| 2026-05-07 20:50 | 52.87139 | -2.13785 | 27031 ft | 426 kts | 150° |
| 2026-05-07 20:50 | 52.84626 | -2.11162 | 27029 ft | 426 kts | 150° |
| 2026-05-07 20:51 | 52.82107 | -2.08538 | 27029 ft | 426 kts | 150° |
| 2026-05-07 20:51 | 52.79595 | -2.05924 | 27032 ft | 426 kts | 150° |
| 2026-05-07 20:51 | 52.77116 | -2.03348 | 27028 ft | 426 kts | 150° |
| 2026-05-07 20:51 | 52.74605 | -2.00743 | 27038 ft | 426 kts | 150° |
| 2026-05-07 20:52 | 52.72094 | -1.98142 | 27031 ft | 426 kts | 150° |
| 2026-05-07 20:52 | 52.69577 | -1.95537 | 26849 ft | 426 kts | 150° |
| 2026-05-07 20:52 | 52.67071 | -1.92946 | 26589 ft | 423 kts | 150° |
| 2026-05-07 20:52 | 52.64577 | -1.90372 | 26336 ft | 421 kts | 150° |
| 2026-05-07 20:53 | 52.62098 | -1.87818 | 26083 ft | 419 kts | 150° |
| 2026-05-07 20:53 | 52.59622 | -1.85269 | 25830 ft | 418 kts | 150° |
| 2026-05-07 20:53 | 52.57163 | -1.82742 | 25580 ft | 417 kts | 150° |
| 2026-05-07 20:53 | 52.54707 | -1.80222 | 25332 ft | 415 kts | 150° |
| 2026-05-07 20:54 | 52.52283 | -1.77738 | 25087 ft | 413 kts | 150° |
| 2026-05-07 20:54 | 52.49842 | -1.75240 | 24834 ft | 412 kts | 150° |
| 2026-05-07 20:54 | 52.47410 | -1.72755 | 24599 ft | 410 kts | 150° |
| 2026-05-07 20:54 | 52.44985 | -1.70280 | 24357 ft | 409 kts | 150° |
| 2026-05-07 20:55 | 52.42571 | -1.67819 | 24117 ft | 407 kts | 150° |
| 2026-05-07 20:55 | 52.40203 | -1.65407 | 23878 ft | 406 kts | 150° |
| 2026-05-07 20:55 | 52.37805 | -1.62969 | 23645 ft | 404 kts | 150° |
| 2026-05-07 20:55 | 52.35414 | -1.60541 | 23197 ft | 404 kts | 150° |
| 2026-05-07 20:56 | 52.33034 | -1.58129 | 22662 ft | 401 kts | 150° |
| 2026-05-07 20:56 | 52.30673 | -1.55736 | 22130 ft | 396 kts | 150° |
| 2026-05-07 20:56 | 52.28334 | -1.53370 | 21610 ft | 391 kts | 150° |
| 2026-05-07 20:56 | 52.26032 | -1.51044 | 21082 ft | 387 kts | 150° |
| 2026-05-07 20:57 | 52.24523 | -1.49520 | 20721 ft | 384 kts | 150° |
| 2026-05-07 20:57 | 52.21561 | -1.46424 | 20123 ft | 379 kts | 146° |
| 2026-05-07 20:57 | 52.19514 | -1.43679 | 19723 ft | 383 kts | 141° |
| 2026-05-07 20:57 | 52.17499 | -1.40844 | 19334 ft | 381 kts | 141° |
| 2026-05-07 20:58 | 52.15500 | -1.38037 | 18943 ft | 378 kts | 141° |
| 2026-05-07 20:58 | 52.14155 | -1.36153 | 18683 ft | 376 kts | 141° |
| 2026-05-07 20:58 | 52.12198 | -1.33422 | 18309 ft | 374 kts | 141° |
| 2026-05-07 20:58 | 52.10224 | -1.30673 | 17859 ft | 372 kts | 141° |
| 2026-05-07 20:59 | 52.08257 | -1.27938 | 17423 ft | 369 kts | 141° |
| 2026-05-07 20:59 | 52.06310 | -1.25234 | 16995 ft | 367 kts | 141° |
| 2026-05-07 20:59 | 52.04394 | -1.22576 | 16569 ft | 365 kts | 141° |
| 2026-05-07 20:59 | 52.02469 | -1.19911 | 16150 ft | 362 kts | 141° |
| 2026-05-07 21:00 | 52.00553 | -1.17259 | 15736 ft | 360 kts | 141° |
| 2026-05-07 21:00 | 51.98646 | -1.14625 | 15334 ft | 358 kts | 141° |
| 2026-05-07 21:00 | 51.96746 | -1.12003 | 14931 ft | 356 kts | 141° |
| 2026-05-07 21:00 | 51.94865 | -1.09408 | 14536 ft | 354 kts | 141° |
| 2026-05-07 21:01 | 51.93011 | -1.06854 | 14154 ft | 352 kts | 141° |
| 2026-05-07 21:01 | 51.91148 | -1.04290 | 13761 ft | 350 kts | 141° |
| 2026-05-07 21:01 | 51.89295 | -1.01742 | 13331 ft | 348 kts | 141° |
| 2026-05-07 21:01 | 51.87457 | -0.99219 | 12908 ft | 344 kts | 141° |
| 2026-05-07 21:02 | 51.85716 | -0.96602 | 12485 ft | 340 kts | 132° |
| 2026-05-07 21:02 | 51.84371 | -0.93488 | 12070 ft | 337 kts | 120° |
| 2026-05-07 21:02 | 51.83366 | -0.90116 | 11848 ft | 327 kts | 116° |
| 2026-05-07 21:02 | 51.82410 | -0.86860 | 11722 ft | 313 kts | 117° |
| 2026-05-07 21:03 | 51.81487 | -0.83792 | 11601 ft | 301 kts | 117° |
| 2026-05-07 21:03 | 51.80584 | -0.80823 | 11488 ft | 288 kts | 118° |
| 2026-05-07 21:03 | 51.79709 | -0.77969 | 11382 ft | 276 kts | 118° |
| 2026-05-07 21:03 | 51.78874 | -0.75251 | 11096 ft | 266 kts | 118° |
| 2026-05-07 21:04 | 51.78048 | -0.72570 | 10585 ft | 265 kts | 118° |
| 2026-05-07 21:04 | 51.77227 | -0.69910 | 10095 ft | 264 kts | 118° |
| 2026-05-07 21:04 | 51.76420 | -0.67294 | 9579 ft | 262 kts | 118° |
| 2026-05-07 21:04 | 51.75611 | -0.64674 | 9081 ft | 259 kts | 117° |
| 2026-05-07 21:05 | 51.74741 | -0.62156 | 8586 ft | 255 kts | 132° |
| 2026-05-07 21:05 | 51.73313 | -0.60485 | 8401 ft | 254 kts | 162° |
| 2026-05-07 21:05 | 51.71653 | -0.60115 | 8265 ft | 232 kts | 189° |
| 2026-05-07 21:05 | 51.70143 | -0.60680 | 8091 ft | 216 kts | 195° |
| 2026-05-07 21:06 | 51.68697 | -0.61269 | 7688 ft | 213 kts | 195° |
| 2026-05-07 21:06 | 51.67265 | -0.61841 | 7265 ft | 211 kts | 195° |
| 2026-05-07 21:06 | 51.65857 | -0.62400 | 6845 ft | 211 kts | 194° |
| 2026-05-07 21:06 | 51.64431 | -0.62966 | 6437 ft | 212 kts | 194° |
| 2026-05-07 21:07 | 51.62997 | -0.63535 | 6129 ft | 210 kts | 194° |
| 2026-05-07 21:07 | 51.61588 | -0.64099 | 5869 ft | 207 kts | 195° |
| 2026-05-07 21:07 | 51.60363 | -0.65237 | 5604 ft | 204 kts | 226° |
| 2026-05-07 21:07 | 51.59732 | -0.67238 | 5349 ft | 205 kts | 261° |
| 2026-05-07 21:08 | 51.59597 | -0.69534 | 5103 ft | 207 kts | 265° |
| 2026-05-07 21:08 | 51.59506 | -0.71790 | 4926 ft | 196 kts | 266° |
| 2026-05-07 21:08 | 51.59421 | -0.73942 | 4660 ft | 190 kts | 266° |
| 2026-05-07 21:08 | 51.59341 | -0.76044 | 4395 ft | 185 kts | 266° |
| 2026-05-07 21:09 | 51.59266 | -0.78092 | 4128 ft | 182 kts | 265° |
| 2026-05-07 21:09 | 51.59195 | -0.80087 | 3881 ft | 180 kts | 265° |
| 2026-05-07 21:09 | 51.59120 | -0.82051 | 3722 ft | 171 kts | 260° |
| 2026-05-07 21:09 | 51.58568 | -0.83670 | 3587 ft | 168 kts | 216° |
| 2026-05-07 21:10 | 51.57489 | -0.84214 | 3472 ft | 165 kts | 172° |
| 2026-05-07 21:10 | 51.56433 | -0.83549 | 3356 ft | 164 kts | 151° |
| 2026-05-07 21:10 | 51.55433 | -0.82669 | 3218 ft | 163 kts | 150° |
| 2026-05-07 21:10 | 51.54472 | -0.81721 | 3087 ft | 162 kts | 142° |
| 2026-05-07 21:11 | 51.53597 | -0.80582 | 2997 ft | 162 kts | 140° |
| 2026-05-07 21:11 | 51.52726 | -0.79430 | 2987 ft | 162 kts | 140° |
| 2026-05-07 21:11 | 51.50992 | -0.77145 | 2987 ft | 162 kts | 141° |
| 2026-05-07 21:12 | 51.50117 | -0.75995 | 2989 ft | 162 kts | 141° |
| 2026-05-07 21:12 | 51.49240 | -0.74841 | 2989 ft | 163 kts | 141° |
| 2026-05-07 21:12 | 51.48406 | -0.73627 | 2986 ft | 162 kts | 128° |
| 2026-05-07 21:12 | 51.47899 | -0.72013 | 2970 ft | 164 kts | 107° |
| 2026-05-07 21:13 | 51.47714 | -0.70194 | 2798 ft | 165 kts | 95° |
| 2026-05-07 21:13 | 51.47679 | -0.68387 | 2578 ft | 164 kts | 91° |
| 2026-05-07 21:13 | 51.47686 | -0.66563 | 2357 ft | 163 kts | 91° |
| 2026-05-07 21:13 | 51.47690 | -0.64745 | 2139 ft | 163 kts | 91° |
| 2026-05-07 21:14 | 51.47697 | -0.62929 | 1910 ft | 161 kts | 91° |
| 2026-05-07 21:14 | 51.47703 | -0.61128 | 1707 ft | 161 kts | 91° |
| 2026-05-07 21:14 | 51.47710 | -0.59326 | 1479 ft | 161 kts | 91° |
| 2026-05-07 21:14 | 51.47717 | -0.57579 | 1248 ft | 148 kts | 91° |
| 2026-05-07 21:15 | 51.47722 | -0.56018 | 1051 ft | 135 kts | 91° |
| 2026-05-07 21:15 | 51.47727 | -0.54540 | 861 ft | 133 kts | 92° |
| 2026-05-07 21:15 | 51.47732 | -0.53070 | 685 ft | 129 kts | 91° |
| 2026-05-07 21:15 | 51.47737 | -0.51673 | 515 ft | 128 kts | 91° |
| 2026-05-07 21:16 | 51.47739 | -0.50250 | 323 ft | 126 kts | 91° |
| 2026-05-07 21:16 | 51.47749 | -0.48858 | 168 ft | 126 kts | 91° |
| 2026-05-07 21:16 | 51.47754 | -0.47478 | 85 ft | 116 kts | 90° |
| 2026-05-07 21:16 | 51.47754 | -0.46508 | 89 ft | 59 kts | 89° |
| 2026-05-07 21:17 | 51.47726 | -0.46170 | 87 ft | 20 kts | 134° |
| 2026-05-07 21:17 | 51.47655 | -0.46095 | 90 ft | 7 kts | 146° |
| 2026-05-07 21:17 | 51.47588 | -0.46123 | 89 ft | 12 kts | 249° |
| 2026-05-07 21:17 | 51.47592 | -0.46185 | 87 ft | 11 kts | 274° |
| 2026-05-07 21:18 | 51.47593 | -0.46349 | 87 ft | 17 kts | 271° |
| 2026-05-07 21:18 | 51.47593 | -0.46562 | 89 ft | 21 kts | 269° |
| 2026-05-07 21:18 | 51.47591 | -0.46803 | 87 ft | 23 kts | 268° |
| 2026-05-07 21:18 | 51.47583 | -0.47068 | 89 ft | 22 kts | 269° |
| 2026-05-07 21:19 | 51.47579 | -0.47311 | 88 ft | 15 kts | 252° |
| 2026-05-07 21:19 | 51.47489 | -0.47359 | 86 ft | 15 kts | 179° |
| 2026-05-07 21:19 | 51.47373 | -0.47357 | 86 ft | 18 kts | 179° |
| 2026-05-07 21:19 | 51.47244 | -0.47355 | 86 ft | 18 kts | 180° |
| 2026-05-07 21:20 | 51.47220 | -0.47354 | 87 ft | 2 kts | 171° |
| 2026-05-07 21:20 | 51.47207 | -0.47327 | 89 ft | 4 kts | 103° |
| 2026-05-07 21:20 | 51.47208 | -0.47262 | 88 ft | 8 kts | 89° |
| 2026-05-07 21:20 | 51.47208 | -0.47192 | 89 ft | 0 kts | 91° |